Time;durP1;ratioP1;P1;durP2;ratioP2;P2;SDS_P1;SDS_P2;PMS_P1;PMS_P2;Temp;Humidity;BMP_temperature;BMP_pressure;BME280_temperature;BME280_humidity;BME280_pressure;Samples;Min_cycle;Max_cycle;Signal;HPM_P1;HPM_P2
2022/05/24 00:01:25;;;;;;;23.17;21.67;;;;;;;;;;5074475;28;21211;-86
2022/05/24 00:03:52;;;;;;;24.10;22.50;;;;;;;;;;5075744;28;20844;-87
2022/05/24 00:06:20;;;;;;;22.30;20.80;;;;;;;;;;5075149;28;20437;-87
2022/05/24 00:08:49;;;;;;;21.97;20.67;;;;;;;;;;5074005;28;20421;-87
2022/05/24 00:11:16;;;;;;;21.87;20.57;;;;;;;;;;5073465;28;20435;-87
2022/05/24 00:13:43;;;;;;;23.17;21.73;;;;;;;;;;5074226;28;20437;-87
2022/05/24 00:16:11;;;;;;;23.03;21.43;;;;;;;;;;5074317;28;20800;-86
2022/05/24 00:18:39;;;;;;;22.10;20.70;;;;;;;;;;5073714;28;20408;-87
2022/05/24 00:21:07;;;;;;;22.67;21.07;;;;;;;;;;5073862;28;20410;-87
2022/05/24 00:23:35;;;;;;;22.13;20.73;;;;;;;;;;5074009;28;20496;-87
2022/05/24 00:26:05;;;;;;;22.17;20.70;;;;;;;;;;5073818;28;20442;-87
2022/05/24 00:28:33;;;;;;;22.87;21.20;;;;;;;;;;5073106;28;20911;-87
2022/05/24 00:31:01;;;;;;;22.33;21.00;;;;;;;;;;5074038;28;20439;-87
2022/05/24 00:33:31;;;;;;;23.20;21.60;;;;;;;;;;5073834;28;20451;-87
2022/05/24 00:35:58;;;;;;;24.07;22.47;;;;;;;;;;5074033;28;20535;-88
2022/05/24 00:38:27;;;;;;;24.37;22.87;;;;;;;;;;5073863;28;20416;-87
2022/05/24 00:40:59;;;;;;;24.73;23.10;;;;;;;;;;5074115;28;20416;-87
2022/05/24 00:43:30;;;;;;;23.17;21.77;;;;;;;;;;5073765;28;20486;-86
2022/05/24 00:46:00;;;;;;;24.63;22.93;;;;;;;;;;5073973;28;20442;-87
2022/05/24 00:48:30;;;;;;;25.27;23.40;;;;;;;;;;5073949;28;20434;-87
2022/05/24 00:50:58;;;;;;;24.50;22.80;;;;;;;;;;5074145;28;20409;-87
2022/05/24 00:53:28;;;;;;;26.27;24.37;;;;;;;;;;5074084;28;20417;-87
2022/05/24 00:55:59;;;;;;;24.93;23.20;;;;;;;;;;5076690;28;20470;-87
2022/05/24 00:58:37;;;;;;;24.80;23.10;;;;;;;;;;5078010;28;20426;-87
2022/05/24 01:01:08;;;;;;;25.43;23.73;;;;;;;;;;5077841;28;20436;-87
2022/05/24 01:03:36;;;;;;;26.37;24.30;;;;;;;;;;5077751;28;20464;-87
2022/05/24 01:06:03;;;;;;;25.40;23.50;;;;;;;;;;5076718;28;20502;-87
2022/05/24 01:08:32;;;;;;;23.17;21.67;;;;;;;;;;5077974;28;20829;-87
2022/05/24 01:11:01;;;;;;;26.90;24.90;;;;;;;;;;5077845;28;20465;-88
2022/05/24 01:13:31;;;;;;;26.47;24.57;;;;;;;;;;5077524;28;20992;-87
2022/05/24 01:15:58;;;;;;;24.53;22.83;;;;;;;;;;5078211;28;20776;-87
2022/05/24 01:18:26;;;;;;;26.07;24.20;;;;;;;;;;5077302;28;20421;-87
2022/05/24 01:20:56;;;;;;;25.83;24.03;;;;;;;;;;5077620;28;20438;-87
2022/05/24 01:23:38;;;;;;;25.03;23.13;;;;;;;;;;5076380;28;20517;-87
2022/05/24 01:26:08;;;;;;;25.47;23.67;;;;;;;;;;5078170;28;20442;-88
2022/05/24 01:28:40;;;;;;;26.00;24.17;;;;;;;;;;5077357;28;20444;-88
2022/05/24 01:31:08;;;;;;;26.23;24.30;;;;;;;;;;5077966;28;20454;-88
2022/05/24 01:36:21;;;;;;;24.40;22.80;;;;;;;;;;5078791;28;21047;-88
2022/05/24 01:38:50;;;;;;;25.60;23.90;;;;;;;;;;5078895;28;20421;-89
2022/05/24 01:41:20;;;;;;;25.60;23.70;;;;;;;;;;5079065;28;20424;-88
2022/05/24 01:43:50;;;;;;;25.13;23.43;;;;;;;;;;5077709;28;20497;-87
2022/05/24 01:46:19;;;;;;;25.83;23.87;;;;;;;;;;5076517;28;20444;-88
2022/05/24 01:48:49;;;;;;;33.17;26.50;;;;;;;;;;5077028;28;20446;-87
2022/05/24 01:51:17;;;;;;;26.00;24.10;;;;;;;;;;5077032;28;20428;-88
2022/05/24 01:53:46;;;;;;;25.77;23.97;;;;;;;;;;5078013;28;20444;-89
2022/05/24 01:56:16;;;;;;;25.60;23.80;;;;;;;;;;5076832;28;20429;-89
2022/05/24 01:58:45;;;;;;;25.10;23.40;;;;;;;;;;5075191;28;20495;-89
2022/05/24 02:01:21;;;;;;;25.57;23.77;;;;;;;;;;5075735;28;20435;-89
2022/05/24 02:03:48;;;;;;;27.40;25.20;;;;;;;;;;5076193;28;20473;-89
2022/05/24 02:06:20;;;;;;;26.63;24.53;;;;;;;;;;5075377;28;20442;-89
2022/05/24 02:08:47;;;;;;;25.70;23.70;;;;;;;;;;5076610;28;20429;-89
2022/05/24 02:11:15;;;;;;;26.47;24.37;;;;;;;;;;5076121;28;21044;-88
2022/05/24 02:13:45;;;;;;;27.50;25.40;;;;;;;;;;5077861;28;20458;-89
2022/05/24 02:16:17;;;;;;;26.80;24.83;;;;;;;;;;5076681;28;20454;-89
2022/05/24 02:18:46;;;;;;;27.50;25.30;;;;;;;;;;5076372;28;20409;-89
2022/05/24 02:21:13;;;;;;;27.43;25.13;;;;;;;;;;5076363;28;20921;-89
2022/05/24 02:23:41;;;;;;;29.53;27.43;;;;;;;;;;5075813;28;20489;-88
2022/05/24 02:26:09;;;;;;;28.07;25.97;;;;;;;;;;5075958;28;20446;-88
2022/05/24 02:28:37;;;;;;;29.60;27.20;;;;;;;;;;5076032;28;20420;-87
2022/05/24 02:31:05;;;;;;;30.37;27.60;;;;;;;;;;5075499;28;20442;-89
2022/05/24 02:33:35;;;;;;;30.17;27.77;;;;;;;;;;5075639;28;20420;-89
2022/05/24 02:36:02;;;;;;;29.47;27.17;;;;;;;;;;5076644;28;20445;-89
2022/05/24 02:38:30;;;;;;;31.10;28.33;;;;;;;;;;5075603;28;20502;-88
2022/05/24 02:43:42;;;;;;;32.00;29.30;;;;;;;;;;5075874;28;20444;-89
2022/05/24 02:46:10;;;;;;;31.37;28.63;;;;;;;;;;5075812;28;20847;-89
2022/05/24 02:48:39;;;;;;;32.43;29.70;;;;;;;;;;5075679;28;20402;-89
2022/05/24 02:51:09;;;;;;;32.63;29.57;;;;;;;;;;5075575;28;20428;-89
2022/05/24 02:53:37;;;;;;;32.87;29.77;;;;;;;;;;5075709;28;20428;-89
2022/05/24 02:56:05;;;;;;;34.50;31.43;;;;;;;;;;5075768;28;20408;-89
2022/05/24 02:58:32;;;;;;;35.03;31.83;;;;;;;;;;5075412;28;20442;-88
2022/05/24 03:01:00;;;;;;;35.43;32.30;;;;;;;;;;5075885;28;20409;-89
2022/05/24 03:03:27;;;;;;;34.53;31.60;;;;;;;;;;5074980;28;20461;-89
2022/05/24 03:05:56;;;;;;;34.13;31.07;;;;;;;;;;5075004;28;20531;-89
2022/05/24 03:11:10;;;;;;;36.40;32.90;;;;;;;;;;5075105;28;20397;-88
2022/05/24 03:16:22;;;;;;;33.20;29.90;;;;;;;;;;5074817;28;20748;-88
2022/05/24 03:18:50;;;;;;;37.20;34.00;;;;;;;;;;5075203;28;20428;-88
2022/05/24 03:21:18;;;;;;;35.57;32.23;;;;;;;;;;5074013;28;20443;-89
2022/05/24 03:23:46;;;;;;;37.70;34.30;;;;;;;;;;5074925;28;20978;-88
2022/05/24 03:26:14;;;;;;;35.47;32.37;;;;;;;;;;5074764;28;20938;-89
2022/05/24 03:28:42;;;;;;;37.47;33.83;;;;;;;;;;5074973;28;20430;-89
2022/05/24 03:31:09;;;;;;;38.30;30.70;;;;;;;;;;5073648;28;20421;-88
2022/05/24 03:33:37;;;;;;;35.00;31.80;;;;;;;;;;5074528;28;20477;-87
2022/05/24 03:36:05;;;;;;;35.37;32.00;;;;;;;;;;5074633;28;20436;-88
2022/05/24 03:38:34;;;;;;;36.87;33.53;;;;;;;;;;5073671;28;20439;-87
2022/05/24 03:41:01;;;;;;;35.57;32.40;;;;;;;;;;5074754;28;20416;-88
2022/05/24 03:43:29;;;;;;;35.10;32.10;;;;;;;;;;5074604;28;20456;-88
2022/05/24 03:46:00;;;;;;;37.50;34.30;;;;;;;;;;5074601;28;20936;-90
2022/05/24 03:48:28;;;;;;;35.13;31.93;;;;;;;;;;5073327;28;20473;-89
2022/05/24 03:50:56;;;;;;;34.77;31.63;;;;;;;;;;5074940;28;20474;-89
2022/05/24 03:53:24;;;;;;;32.13;29.10;;;;;;;;;;5081179;28;20417;-89
2022/05/24 03:55:53;;;;;;;35.90;32.83;;;;;;;;;;5074484;28;20425;-88
2022/05/24 03:58:21;;;;;;;34.77;31.57;;;;;;;;;;5074520;28;20409;-88
2022/05/24 04:00:48;;;;;;;35.80;32.60;;;;;;;;;;5074586;28;20429;-88
2022/05/24 04:03:15;;;;;;;35.00;31.80;;;;;;;;;;5074590;28;20438;-88
2022/05/24 04:05:43;;;;;;;34.10;31.00;;;;;;;;;;5074153;28;20482;-89
2022/05/24 04:08:10;;;;;;;34.83;31.70;;;;;;;;;;5074348;28;20462;-88
2022/05/24 04:10:39;;;;;;;35.70;32.30;;;;;;;;;;5072990;28;20499;-88
2022/05/24 04:13:08;;;;;;;35.00;31.93;;;;;;;;;;5074484;28;20482;-87
2022/05/24 04:15:36;;;;;;;37.53;34.20;;;;;;;;;;5074798;28;20405;-88
2022/05/24 04:18:03;;;;;;;33.23;30.23;;;;;;;;;;5074475;28;20801;-89
2022/05/24 04:20:31;;;;;;;34.60;31.37;;;;;;;;;;5074554;28;20434;-88
2022/05/24 04:22:58;;;;;;;33.70;30.87;;;;;;;;;;5074073;28;20435;-87
2022/05/24 04:25:26;;;;;;;35.47;32.37;;;;;;;;;;5072989;28;20800;-88
2022/05/24 04:27:54;;;;;;;33.40;30.33;;;;;;;;;;5075050;28;20445;-89
2022/05/24 04:30:23;;;;;;;34.27;31.20;;;;;;;;;;5074727;28;20488;-88
2022/05/24 04:32:50;;;;;;;33.40;30.77;;;;;;;;;;5075843;28;20770;-88
2022/05/24 04:35:18;;;;;;;35.00;31.80;;;;;;;;;;5076373;28;20441;-89
2022/05/24 04:37:45;;;;;;;32.90;30.20;;;;;;;;;;5077560;28;20438;-89
2022/05/24 04:40:13;;;;;;;34.37;31.27;;;;;;;;;;5078835;28;20442;-89
2022/05/24 04:42:40;;;;;;;31.80;29.23;;;;;;;;;;5073474;28;20433;-88
2022/05/24 04:45:09;;;;;;;33.50;30.70;;;;;;;;;;5073489;28;20457;-88
2022/05/24 04:47:38;;;;;;;32.40;29.53;;;;;;;;;;5074027;28;20450;-88
2022/05/24 04:50:07;;;;;;;34.10;31.20;;;;;;;;;;5073919;28;20920;-87
2022/05/24 04:52:36;;;;;;;31.80;29.10;;;;;;;;;;5073950;28;20413;-88
2022/05/24 04:55:04;;;;;;;30.70;28.30;;;;;;;;;;5074178;28;20435;-88
2022/05/24 04:57:31;;;;;;;30.40;27.90;;;;;;;;;;5073927;28;20433;-88
2022/05/24 04:59:58;;;;;;;31.27;28.50;;;;;;;;;;5073899;28;20478;-88
2022/05/24 05:02:26;;;;;;;31.73;29.13;;;;;;;;;;5074250;28;20492;-88
2022/05/24 05:04:55;;;;;;;29.80;27.50;;;;;;;;;;5074009;28;20477;-88
2022/05/24 05:07:23;;;;;;;30.80;28.27;;;;;;;;;;5073719;28;20417;-88
2022/05/24 05:09:51;;;;;;;30.50;28.00;;;;;;;;;;5072657;28;20455;-88
2022/05/24 05:12:19;;;;;;;30.43;27.90;;;;;;;;;;5073542;28;20461;-88
2022/05/24 05:14:46;;;;;;;30.80;28.37;;;;;;;;;;5073657;28;20429;-88
2022/05/24 05:17:16;;;;;;;29.30;27.10;;;;;;;;;;5073508;28;20442;-88
2022/05/24 05:19:44;;;;;;;29.47;26.87;;;;;;;;;;5072288;28;20525;-88
2022/05/24 05:22:14;;;;;;;30.40;27.90;;;;;;;;;;5071965;28;20425;-88
2022/05/24 05:24:41;;;;;;;28.27;26.17;;;;;;;;;;5073201;28;20973;-88
2022/05/24 05:27:09;;;;;;;29.87;27.50;;;;;;;;;;5073492;28;20421;-89
2022/05/24 05:32:26;;;;;;;27.20;25.30;;;;;;;;;;5055693;28;20475;-88
2022/05/24 05:34:54;;;;;;;28.17;25.77;;;;;;;;;;5073491;28;20448;-88
2022/05/24 05:37:23;;;;;;;28.27;26.20;;;;;;;;;;5073053;28;20438;-88
2022/05/24 05:39:50;;;;;;;29.27;26.70;;;;;;;;;;5073063;28;20441;-88
2022/05/24 05:42:19;;;;;;;27.73;25.43;;;;;;;;;;5074508;28;20413;-87
2022/05/24 05:44:46;;;;;;;28.43;26.20;;;;;;;;;;5076242;28;20883;-86
2022/05/24 05:47:14;;;;;;;30.30;27.70;;;;;;;;;;5076785;28;20449;-87
2022/05/24 05:49:42;;;;;;;27.60;25.60;;;;;;;;;;5076752;28;20434;-87
2022/05/24 05:52:09;;;;;;;30.13;27.77;;;;;;;;;;5076452;28;20431;-87
2022/05/24 05:54:38;;;;;;;27.50;25.43;;;;;;;;;;5076714;28;20444;-87
2022/05/24 05:57:07;;;;;;;28.63;26.33;;;;;;;;;;5076534;28;20410;-86
2022/05/24 05:59:34;;;;;;;26.73;24.80;;;;;;;;;;5076501;28;20409;-87
2022/05/24 06:02:04;;;;;;;27.40;25.40;;;;;;;;;;5076334;28;20412;-88
2022/05/24 06:04:31;;;;;;;26.77;24.77;;;;;;;;;;5076068;28;20498;-87
2022/05/24 06:06:59;;;;;;;29.03;26.83;;;;;;;;;;5058696;28;20454;-88
2022/05/24 06:09:27;;;;;;;26.67;24.80;;;;;;;;;;5076525;28;20944;-88
2022/05/24 06:11:55;;;;;;;28.20;25.87;;;;;;;;;;5076183;28;20435;-88
2022/05/24 06:14:23;;;;;;;29.03;26.73;;;;;;;;;;5076141;28;20880;-88
2022/05/24 06:16:50;;;;;;;28.80;26.53;;;;;;;;;;5076386;28;20434;-88
2022/05/24 06:19:18;;;;;;;28.63;26.43;;;;;;;;;;5076246;28;20406;-88
2022/05/24 06:21:45;;;;;;;29.00;26.70;;;;;;;;;;5076343;28;20423;-87
2022/05/24 06:24:14;;;;;;;28.50;26.40;;;;;;;;;;5076051;28;20479;-88
2022/05/24 06:26:43;;;;;;;27.70;25.50;;;;;;;;;;5076340;28;20814;-89
2022/05/24 06:29:11;;;;;;;29.27;27.00;;;;;;;;;;5076036;28;20418;-89
2022/05/24 06:31:42;;;;;;;30.50;28.10;;;;;;;;;;5075918;28;20439;-89
2022/05/24 06:34:09;;;;;;;31.30;28.60;;;;;;;;;;5076050;28;20541;-90
2022/05/24 06:36:36;;;;;;;29.33;26.83;;;;;;;;;;5075999;28;20454;-89
2022/05/24 06:39:04;;;;;;;25.73;23.93;;;;;;;;;;5076100;28;20509;-88
2022/05/24 06:41:31;;;;;;;25.50;23.63;;;;;;;;;;5075937;28;20417;-89
2022/05/24 06:43:58;;;;;;;29.70;27.60;;;;;;;;;;5075954;28;20409;-89
2022/05/24 06:46:27;;;;;;;25.23;22.77;;;;;;;;;;5075987;28;20421;-88
2022/05/24 06:48:55;;;;;;;25.40;23.70;;;;;;;;;;5075635;28;20412;-85
2022/05/24 06:51:23;;;;;;;21.90;20.70;;;;;;;;;;5075332;28;20417;-85
2022/05/24 06:53:51;;;;;;;30.63;28.83;;;;;;;;;;5074796;28;20447;-85
2022/05/24 06:56:18;;;;;;;27.20;25.70;;;;;;;;;;5075230;28;20442;-84
2022/05/24 06:58:46;;;;;;;29.97;27.93;;;;;;;;;;5074778;28;20439;-85
2022/05/24 07:04:00;;;;;;;29.30;27.20;;;;;;;;;;5074296;28;20404;-87
2022/05/24 07:06:27;;;;;;;29.30;27.50;;;;;;;;;;5074610;28;20450;-85
2022/05/24 07:08:55;;;;;;;30.27;28.33;;;;;;;;;;5074515;28;20430;-85
2022/05/24 07:11:23;;;;;;;31.87;29.83;;;;;;;;;;5074439;28;20444;-84
2022/05/24 07:13:50;;;;;;;33.47;31.57;;;;;;;;;;5074618;28;20442;-84
2022/05/24 07:16:18;;;;;;;32.20;30.00;;;;;;;;;;5075284;28;20786;-87
2022/05/24 07:18:46;;;;;;;33.83;31.20;;;;;;;;;;5074006;28;20409;-87
2022/05/24 07:21:16;;;;;;;31.43;29.70;;;;;;;;;;5075677;28;20412;-87
2022/05/24 07:23:44;;;;;;;32.57;30.40;;;;;;;;;;5075103;28;20413;-87
2022/05/24 07:26:13;;;;;;;33.40;31.47;;;;;;;;;;5074766;28;21016;-87
2022/05/24 07:28:40;;;;;;;32.37;30.50;;;;;;;;;;5074913;28;20741;-86
2022/05/24 07:31:08;;;;;;;34.77;32.77;;;;;;;;;;5074832;28;20406;-88
2022/05/24 07:33:36;;;;;;;35.03;32.93;;;;;;;;;;5074694;28;20444;-88
2022/05/24 07:36:04;;;;;;;34.30;32.00;;;;;;;;;;5074886;28;20498;-88
2022/05/24 07:38:32;;;;;;;38.20;35.80;;;;;;;;;;5074688;28;20474;-87
2022/05/24 07:46:30;;;;;;;35.50;33.50;;;;;;;;;;5074247;28;20845;-88
2022/05/24 07:48:58;;;;;;;37.67;35.57;;;;;;;;;;5074248;28;20408;-91
2022/05/24 07:51:25;;;;;;;39.20;36.77;;;;;;;;;;5074460;28;20454;-89
2022/05/24 07:53:54;;;;;;;39.23;36.93;;;;;;;;;;5073144;28;20481;-89
2022/05/24 07:56:21;;;;;;;37.07;34.90;;;;;;;;;;5074451;28;20499;-88
2022/05/24 07:58:49;;;;;;;37.57;35.30;;;;;;;;;;5073427;28;20475;-89
2022/05/24 08:01:17;;;;;;;37.17;34.70;;;;;;;;;;5073465;28;20421;-89
2022/05/24 08:03:45;;;;;;;37.27;34.67;;;;;;;;;;5073957;28;20438;-89
2022/05/24 08:06:12;;;;;;;36.13;33.87;;;;;;;;;;5073472;28;20501;-89
2022/05/24 08:08:40;;;;;;;34.17;32.07;;;;;;;;;;5074343;28;20446;-89
2022/05/24 08:11:09;;;;;;;33.57;31.67;;;;;;;;;;5074324;28;20400;-88
2022/05/24 08:13:37;;;;;;;35.27;33.07;;;;;;;;;;5074500;28;20412;-89
2022/05/24 08:16:04;;;;;;;34.67;32.57;;;;;;;;;;5074126;28;20416;-89
2022/05/24 08:18:32;;;;;;;35.90;33.77;;;;;;;;;;5074366;28;20890;-89
2022/05/24 08:21:00;;;;;;;34.50;32.50;;;;;;;;;;5074340;28;20462;-89
2022/05/24 08:23:28;;;;;;;33.83;31.60;;;;;;;;;;5074222;28;20790;-88
2022/05/24 08:25:56;;;;;;;31.40;29.50;;;;;;;;;;5074068;28;20474;-88
2022/05/24 08:28:25;;;;;;;32.77;30.50;;;;;;;;;;5074308;28;20493;-89
2022/05/24 08:30:54;;;;;;;32.73;30.70;;;;;;;;;;5074244;28;20434;-88
2022/05/24 08:33:23;;;;;;;32.77;30.87;;;;;;;;;;5073706;28;20433;-89
2022/05/24 08:35:51;;;;;;;30.90;29.10;;;;;;;;;;5073918;28;20466;-89
2022/05/24 08:38:18;;;;;;;32.90;31.00;;;;;;;;;;5074206;28;20782;-88
2022/05/24 08:40:46;;;;;;;30.70;28.70;;;;;;;;;;5074369;28;20425;-88
2022/05/24 08:43:29;;;;;;;30.83;28.93;;;;;;;;;;5072691;28;20507;-89
2022/05/24 08:48:51;;;;;;;27.03;25.43;;;;;;;;;;5073843;28;20430;-88
2022/05/24 08:51:22;;;;;;;29.40;27.50;;;;;;;;;;5074061;28;20466;-88
2022/05/24 08:53:51;;;;;;;27.77;25.90;;;;;;;;;;5073908;28;20425;-88
2022/05/24 08:56:19;;;;;;;27.43;25.87;;;;;;;;;;5073785;28;20458;-88
2022/05/24 08:58:50;;;;;;;27.40;25.40;;;;;;;;;;5072733;28;20451;-88
2022/05/24 09:01:20;;;;;;;28.20;26.13;;;;;;;;;;5073705;28;20439;-87
2022/05/24 09:03:48;;;;;;;27.00;25.30;;;;;;;;;;5073914;28;20443;-89
2022/05/24 09:06:19;;;;;;;25.73;24.17;;;;;;;;;;5073450;28;20828;-88
2022/05/24 09:08:51;;;;;;;23.77;22.47;;;;;;;;;;5074017;28;20900;-88
2022/05/24 09:11:23;;;;;;;25.77;24.07;;;;;;;;;;5073586;28;20435;-88
2022/05/24 09:13:58;;;;;;;24.80;23.30;;;;;;;;;;5073563;28;20417;-88
2022/05/24 09:16:35;;;;;;;24.57;23.07;;;;;;;;;;5074185;28;20450;-89
2022/05/24 09:19:05;;;;;;;25.33;23.47;;;;;;;;;;5077764;28;20432;-90
2022/05/24 09:21:35;;;;;;;22.27;21.03;;;;;;;;;;5076063;28;20405;-88
2022/05/24 09:24:05;;;;;;;22.20;20.70;;;;;;;;;;5077034;28;20401;-89
2022/05/24 09:26:34;;;;;;;20.93;19.83;;;;;;;;;;5076581;28;20549;-84
2022/05/24 09:29:10;;;;;;;21.93;20.47;;;;;;;;;;5077449;28;20460;-90
2022/05/24 09:31:40;;;;;;;20.80;19.50;;;;;;;;;;5076683;28;20408;-83
2022/05/24 09:34:09;;;;;;;21.70;20.40;;;;;;;;;;5075590;28;20420;-80
2022/05/24 09:36:38;;;;;;;20.53;19.43;;;;;;;;;;5075946;28;20450;-81
2022/05/24 09:39:08;;;;;;;20.80;19.57;;;;;;;;;;5076141;28;21082;-84
2022/05/24 09:41:35;;;;;;;21.40;20.27;;;;;;;;;;5076913;28;20438;-87
2022/05/24 09:44:05;;;;;;;22.67;21.17;;;;;;;;;;5075683;28;20438;-88
2022/05/24 09:46:34;;;;;;;20.20;19.20;;;;;;;;;;5076634;28;20459;-86
2022/05/24 09:49:04;;;;;;;21.23;19.87;;;;;;;;;;5076779;28;20420;-87
2022/05/24 09:51:34;;;;;;;19.47;18.57;;;;;;;;;;5076677;28;20470;-87
2022/05/24 09:54:05;;;;;;;19.63;18.53;;;;;;;;;;5076727;28;20438;-87
2022/05/24 09:56:33;;;;;;;20.30;19.20;;;;;;;;;;5076735;28;20405;-87
2022/05/24 09:59:02;;;;;;;19.37;18.27;;;;;;;;;;5076516;28;20424;-89
2022/05/24 10:01:31;;;;;;;19.90;18.80;;;;;;;;;;5076692;28;20421;-88
2022/05/24 10:04:11;;;;;;;20.43;19.33;;;;;;;;;;5076060;28;20950;-88
2022/05/24 10:06:40;;;;;;;20.00;18.90;;;;;;;;;;5076507;28;20536;-87
2022/05/24 10:09:24;;;;;;;19.83;18.83;;;;;;;;;;5076187;28;20900;-88
2022/05/24 10:11:55;;;;;;;21.17;19.77;;;;;;;;;;5076057;28;20977;-86
2022/05/24 10:14:27;;;;;;;21.43;19.80;;;;;;;;;;5076249;28;20432;-86
2022/05/24 10:16:59;;;;;;;20.00;18.90;;;;;;;;;;5075914;28;20416;-86
2022/05/24 10:19:44;;;;;;;19.30;18.30;;;;;;;;;;5076089;28;20439;-86
2022/05/24 10:22:18;;;;;;;20.00;19.00;;;;;;;;;;5075904;28;20409;-87
2022/05/24 10:24:53;;;;;;;20.93;19.73;;;;;;;;;;5076023;28;20486;-87
2022/05/24 10:27:26;;;;;;;21.70;20.50;;;;;;;;;;5075154;28;20960;-87
2022/05/24 10:29:56;;;;;;;22.13;20.83;;;;;;;;;;5075977;28;20408;-87
2022/05/24 10:38:21;;;;;;;21.50;20.10;;;;;;;;;;5075872;28;20453;-87
2022/05/24 10:40:52;;;;;;;20.93;19.73;;;;;;;;;;5076187;28;20882;-88
2022/05/24 10:43:36;;;;;;;21.63;20.43;;;;;;;;;;5075385;28;20413;-87
2022/05/24 10:46:05;;;;;;;21.33;20.13;;;;;;;;;;5074825;28;20482;-88
2022/05/24 10:48:37;;;;;;;21.70;20.50;;;;;;;;;;5074441;28;20857;-87
2022/05/24 10:51:08;;;;;;;21.17;19.87;;;;;;;;;;5075792;28;20842;-87
2022/05/24 10:53:41;;;;;;;21.33;20.13;;;;;;;;;;5074165;28;20442;-85
2022/05/24 10:56:11;;;;;;;21.70;20.40;;;;;;;;;;5075486;28;20913;-84
2022/05/24 10:58:41;;;;;;;21.50;20.30;;;;;;;;;;5075677;28;20434;-85
2022/05/24 11:01:10;;;;;;;20.50;19.40;;;;;;;;;;5075350;28;20439;-87
2022/05/24 11:03:41;;;;;;;21.80;20.60;;;;;;;;;;5073789;28;20449;-86
2022/05/24 11:06:14;;;;;;;20.80;19.70;;;;;;;;;;5074763;28;20505;-88
2022/05/24 11:08:45;;;;;;;23.00;21.70;;;;;;;;;;5076579;28;20438;-83
2022/05/24 11:11:21;;;;;;;21.73;20.53;;;;;;;;;;5075182;28;20951;-88
2022/05/24 11:13:50;;;;;;;23.07;21.40;;;;;;;;;;5075135;28;20427;-87
2022/05/24 11:16:20;;;;;;;21.00;19.80;;;;;;;;;;5075119;28;20439;-88
2022/05/24 11:18:48;;;;;;;21.73;20.33;;;;;;;;;;5075323;28;20469;-88
2022/05/24 11:21:20;;;;;;;21.20;20.00;;;;;;;;;;5075242;28;20432;-88
2022/05/24 11:23:51;;;;;;;22.60;21.23;;;;;;;;;;5075084;28;20919;-89
2022/05/24 11:26:21;;;;;;;21.27;20.07;;;;;;;;;;5074495;28;20453;-88
2022/05/24 11:28:52;;;;;;;22.10;20.90;;;;;;;;;;5074057;28;20488;-89
2022/05/24 11:31:24;;;;;;;23.77;22.27;;;;;;;;;;5075050;28;20417;-89
2022/05/24 11:33:53;;;;;;;20.93;19.73;;;;;;;;;;5074716;28;20447;-87
2022/05/24 11:36:27;;;;;;;20.63;19.53;;;;;;;;;;5074975;28;20501;-88
2022/05/24 11:38:56;;;;;;;21.33;20.13;;;;;;;;;;5074829;28;20417;-88
2022/05/24 11:41:28;;;;;;;20.37;19.37;;;;;;;;;;5074582;28;20450;-88
2022/05/24 11:44:04;;;;;;;21.13;20.13;;;;;;;;;;5074919;28;20430;-87
2022/05/24 11:46:48;;;;;;;22.53;20.90;;;;;;;;;;5074540;28;20482;-88
2022/05/24 11:49:34;;;;;;;21.40;20.20;;;;;;;;;;5072829;28;20782;-87
2022/05/24 11:52:03;;;;;;;21.60;20.40;;;;;;;;;;5074396;28;20959;-87
2022/05/24 11:54:49;;;;;;;20.30;19.20;;;;;;;;;;5074496;28;20447;-88
2022/05/24 11:57:25;;;;;;;22.60;21.10;;;;;;;;;;5074376;28;20912;-87
2022/05/24 11:59:53;;;;;;;21.50;20.30;;;;;;;;;;5074532;28;20916;-87
2022/05/24 12:08:27;;;;;;;21.23;19.90;;;;;;;;;;5073886;28;20883;-85
2022/05/24 12:10:56;;;;;;;21.87;20.57;;;;;;;;;;5074147;28;20465;-87
2022/05/24 12:13:38;;;;;;;22.00;20.70;;;;;;;;;;5074223;28;20413;-84
2022/05/24 12:16:06;;;;;;;21.47;20.27;;;;;;;;;;5074544;28;20436;-86
2022/05/24 12:18:39;;;;;;;21.50;20.30;;;;;;;;;;5073561;28;20445;-91
2022/05/24 12:21:07;;;;;;;21.33;19.90;;;;;;;;;;5074791;28;20409;-92
2022/05/24 12:23:37;;;;;;;21.37;20.20;;;;;;;;;;5075486;28;20457;-96
2022/05/24 12:26:05;;;;;;;21.80;20.33;;;;;;;;;;5075189;28;20448;-91
2022/05/24 12:28:49;;;;;;;22.07;20.77;;;;;;;;;;5074604;28;20459;-89
2022/05/24 12:31:26;;;;;;;21.90;20.60;;;;;;;;;;5073693;28;20513;-90
2022/05/24 12:33:55;;;;;;;22.10;20.63;;;;;;;;;;5074643;28;20519;-90
2022/05/24 12:36:25;;;;;;;21.37;20.17;;;;;;;;;;5075202;28;20474;-90
2022/05/24 12:38:58;;;;;;;22.30;20.90;;;;;;;;;;5074185;28;20787;-90
2022/05/24 12:41:29;;;;;;;22.90;21.67;;;;;;;;;;5073980;28;20489;-89
2022/05/24 12:44:00;;;;;;;22.00;20.60;;;;;;;;;;5073430;28;20826;-88
2022/05/24 12:46:33;;;;;;;21.27;20.07;;;;;;;;;;5074681;28;20504;-93
2022/05/24 12:49:07;;;;;;;22.30;20.90;;;;;;;;;;5073881;28;20444;-89
2022/05/24 12:51:36;;;;;;;21.43;20.10;;;;;;;;;;5076225;28;20420;-90
2022/05/24 12:54:11;;;;;;;21.53;20.23;;;;;;;;;;5078104;28;20516;-84
2022/05/24 12:56:39;;;;;;;22.40;21.00;;;;;;;;;;5078464;28;20409;-91
2022/05/24 12:59:12;;;;;;;21.80;20.50;;;;;;;;;;5078196;28;20460;-89
2022/05/24 13:01:41;;;;;;;22.07;20.77;;;;;;;;;;5077809;28;20458;-84
2022/05/24 13:04:09;;;;;;;22.93;21.63;;;;;;;;;;5077077;28;20428;-85
2022/05/24 13:06:38;;;;;;;22.30;21.00;;;;;;;;;;5077325;28;20456;-83
2022/05/24 13:09:13;;;;;;;21.40;20.30;;;;;;;;;;5077055;28;20778;-90
2022/05/24 13:11:41;;;;;;;22.83;21.53;;;;;;;;;;5076921;28;20473;-87
2022/05/24 13:14:11;;;;;;;21.93;20.60;;;;;;;;;;5076340;28;20469;-87
2022/05/24 13:16:40;;;;;;;21.70;20.40;;;;;;;;;;5077071;28;20438;-89
2022/05/24 13:19:08;;;;;;;22.33;21.10;;;;;;;;;;5076113;28;20416;-89
2022/05/24 13:21:36;;;;;;;21.70;20.50;;;;;;;;;;5077209;28;20425;-88
2022/05/24 13:24:11;;;;;;;21.30;20.00;;;;;;;;;;5076962;28;20509;-90
2022/05/24 13:26:38;;;;;;;22.13;20.93;;;;;;;;;;5077097;28;20527;-88
2022/05/24 13:29:21;;;;;;;22.03;20.73;;;;;;;;;;5077125;28;20438;-86
2022/05/24 13:34:36;;;;;;;21.97;20.57;;;;;;;;;;5077657;28;20510;-89
2022/05/24 13:37:06;;;;;;;22.57;21.00;;;;;;;;;;5077203;28;20500;-89
2022/05/24 13:39:53;;;;;;;21.53;20.27;;;;;;;;;;5077112;28;20522;-90
2022/05/24 13:42:25;;;;;;;21.30;20.10;;;;;;;;;;5076928;28;20452;-89
2022/05/24 13:45:10;;;;;;;22.50;21.20;;;;;;;;;;5076883;28;20449;-90
2022/05/24 13:47:39;;;;;;;22.40;20.90;;;;;;;;;;5076898;28;20486;-88
2022/05/24 13:50:21;;;;;;;21.97;20.67;;;;;;;;;;5075531;28;20446;-89
2022/05/24 13:52:54;;;;;;;21.60;20.30;;;;;;;;;;5074698;28;20458;-88
2022/05/24 13:55:24;;;;;;;21.03;19.83;;;;;;;;;;5076927;28;20420;-88
2022/05/24 13:57:55;;;;;;;22.20;20.80;;;;;;;;;;5077024;28;20442;-88
2022/05/24 14:00:29;;;;;;;22.50;21.10;;;;;;;;;;5076547;28;20906;-89
2022/05/24 14:03:10;;;;;;;22.23;20.93;;;;;;;;;;5075463;28;20420;-88
2022/05/24 14:05:38;;;;;;;23.27;21.97;;;;;;;;;;5092248;28;20869;-86
2022/05/24 14:08:07;;;;;;;23.20;21.90;;;;;;;;;;5096455;28;20985;-94
2022/05/24 14:10:34;;;;;;;22.93;21.53;;;;;;;;;;5096953;28;20448;-95
2022/05/24 14:13:07;;;;;;;21.80;20.50;;;;;;;;;;5097444;28;20429;-95
2022/05/24 14:15:35;;;;;;;23.00;21.60;;;;;;;;;;5097298;28;20404;-94
2022/05/24 14:18:03;;;;;;;22.57;21.27;;;;;;;;;;5097187;28;20442;-95
2022/05/24 14:20:32;;;;;;;24.40;23.00;;;;;;;;;;5096814;28;20412;-94
2022/05/24 14:23:01;;;;;;;22.83;21.43;;;;;;;;;;5097022;28;20436;-95
2022/05/24 14:25:30;;;;;;;21.90;20.60;;;;;;;;;;5096757;28;20735;-95
2022/05/24 14:27:58;;;;;;;22.57;21.27;;;;;;;;;;5096517;28;20972;-95
2022/05/24 14:30:27;;;;;;;21.80;20.53;;;;;;;;;;5096542;28;20411;-96
2022/05/24 14:32:59;;;;;;;21.93;20.63;;;;;;;;;;5096287;27;20443;-95
2022/05/24 14:35:27;;;;;;;22.60;21.30;;;;;;;;;;5096545;28;20469;-95
2022/05/24 14:37:56;;;;;;;21.70;20.50;;;;;;;;;;5096470;28;20432;-94
2022/05/24 14:40:24;;;;;;;22.47;21.17;;;;;;;;;;5096279;28;20404;-95
2022/05/24 14:42:52;;;;;;;23.20;21.60;;;;;;;;;;5096303;28;20492;-94
2022/05/24 14:45:20;;;;;;;22.47;21.07;;;;;;;;;;5096450;28;20413;-94
2022/05/24 14:47:48;;;;;;;21.90;20.60;;;;;;;;;;5095518;28;20489;-84
2022/05/24 14:50:16;;;;;;;23.57;22.03;;;;;;;;;;5095237;28;20525;-80
2022/05/24 14:52:44;;;;;;;23.07;21.77;;;;;;;;;;5095049;28;20424;-81
2022/05/24 14:55:17;;;;;;;22.20;20.80;;;;;;;;;;5094833;28;20924;-79
2022/05/24 14:57:44;;;;;;;21.93;20.63;;;;;;;;;;5095081;28;20934;-84
2022/05/24 15:00:12;;;;;;;22.43;21.13;;;;;;;;;;5096038;28;20506;-93
2022/05/24 15:02:40;;;;;;;21.63;20.33;;;;;;;;;;5093721;28;20515;-86
2022/05/24 15:05:08;;;;;;;21.70;20.50;;;;;;;;;;5095161;28;20492;-84
2022/05/24 15:15:53;;;;;;;23.00;21.50;;;;;;;;;;5095181;28;20421;-86
2022/05/24 15:18:20;;;;;;;23.00;21.63;;;;;;;;;;5095315;28;20408;-86